createdAt,value
2018-07-30T00:02:18.488Z,99.90
2018-07-30T00:04:46.770Z,99.90
2018-07-30T00:07:15.003Z,99.90
2018-07-30T00:09:43.266Z,99.90
2018-07-30T00:12:12.362Z,99.90
2018-07-30T00:14:41.341Z,99.90
2018-07-30T00:17:13.635Z,99.90
2018-07-30T00:19:43.041Z,99.90
2018-07-30T00:22:12.595Z,99.90
2018-07-30T00:24:42.198Z,99.90
2018-07-30T00:27:10.721Z,99.90
2018-07-30T00:29:39.092Z,99.90
2018-07-30T00:32:08.220Z,99.90
2018-07-30T00:34:36.480Z,99.90
2018-07-30T00:37:04.765Z,99.90
2018-07-30T00:39:33.027Z,99.90
2018-07-30T00:42:01.302Z,99.90
2018-07-30T00:44:29.562Z,99.90
2018-07-30T00:46:57.830Z,99.90
2018-07-30T00:49:26.102Z,99.90
2018-07-30T00:51:55.090Z,99.90
2018-07-30T00:54:24.381Z,99.90
2018-07-30T00:56:53.873Z,99.90
2018-07-30T00:59:22.229Z,99.90
2018-07-30T01:01:50.564Z,99.90
2018-07-30T01:04:18.913Z,99.90
2018-07-30T01:09:15.181Z,99.90
2018-07-30T01:11:43.438Z,99.90
2018-07-30T01:14:14.757Z,99.90
2018-07-30T01:16:43.800Z,99.90
2018-07-30T01:19:13.300Z,99.90
2018-07-30T01:21:42.273Z,99.90
2018-07-30T01:24:11.639Z,99.90
2018-07-30T01:26:40.686Z,99.90
2018-07-30T01:29:08.946Z,99.90
2018-07-30T01:31:37.226Z,99.90
2018-07-30T01:34:05.812Z,99.90
2018-07-30T01:36:34.078Z,99.90
2018-07-30T01:39:02.351Z,99.90
2018-07-30T01:41:30.609Z,99.90
2018-07-30T01:43:58.937Z,99.90
2018-07-30T01:46:27.253Z,99.90
2018-07-30T01:48:56.108Z,99.90
2018-07-30T01:51:25.245Z,99.90
2018-07-30T01:53:54.515Z,99.90
2018-07-30T01:56:42.734Z,99.90
2018-07-30T01:59:12.017Z,99.90
2018-07-30T02:01:40.997Z,99.90
2018-07-30T02:04:09.909Z,99.90
2018-07-30T02:06:38.163Z,99.90
2018-07-30T02:09:08.622Z,99.90
2018-07-30T02:11:36.962Z,99.90
2018-07-30T02:14:05.772Z,99.90
2018-07-30T02:16:34.037Z,99.90
2018-07-30T02:19:11.989Z,99.90
2018-07-30T02:21:40.760Z,99.90
2018-07-30T02:24:09.859Z,99.90
2018-07-30T02:26:38.134Z,99.90
2018-07-30T02:29:06.423Z,99.90
2018-07-30T02:31:34.702Z,99.90
2018-07-30T02:34:02.961Z,99.90
2018-07-30T02:36:31.290Z,99.90
2018-07-30T02:38:59.579Z,99.90
2018-07-30T02:41:27.861Z,99.90
2018-07-30T02:43:56.616Z,99.90
2018-07-30T02:46:25.821Z,99.90
2018-07-30T02:48:54.910Z,99.90
2018-07-30T02:51:25.869Z,99.90
2018-07-30T02:53:54.974Z,99.90
2018-07-30T02:56:24.066Z,99.90
2018-07-30T02:58:52.653Z,99.90
2018-07-30T03:01:20.910Z,99.90
2018-07-30T03:03:49.202Z,99.90
2018-07-30T03:06:17.486Z,99.90
2018-07-30T03:08:45.841Z,99.90
2018-07-30T03:11:14.129Z,99.90
2018-07-30T03:13:43.541Z,99.90
2018-07-30T03:16:12.937Z,99.90
2018-07-30T03:18:42.286Z,99.90
2018-07-30T03:21:11.531Z,99.90
2018-07-30T03:23:40.729Z,99.90
2018-07-30T03:26:08.997Z,99.90
2018-07-30T03:28:37.377Z,99.90
2018-07-30T03:31:05.699Z,99.90
2018-07-30T03:33:33.949Z,99.90
2018-07-30T03:36:02.207Z,99.90
2018-07-30T03:38:30.604Z,99.90
2018-07-30T03:40:58.882Z,99.90
2018-07-30T03:43:27.150Z,99.90
2018-07-30T03:45:55.961Z,99.90
2018-07-30T03:48:25.395Z,99.90
2018-07-30T03:53:23.452Z,99.90
2018-07-30T03:55:51.737Z,99.90
2018-07-30T03:58:20.033Z,99.90
2018-07-30T04:01:09.130Z,99.90
2018-07-30T04:03:37.418Z,99.90
2018-07-30T04:06:05.929Z,99.90
2018-07-30T04:08:34.262Z,99.90
2018-07-30T04:11:02.577Z,99.90
2018-07-30T04:13:30.866Z,99.90
2018-07-30T04:16:00.302Z,99.90
2018-07-30T04:18:28.724Z,99.90
2018-07-30T04:20:56.994Z,99.90
2018-07-30T04:23:25.416Z,99.90
2018-07-30T04:25:54.304Z,99.90
2018-07-30T04:28:23.305Z,99.90
2018-07-30T04:30:51.764Z,99.90
2018-07-30T04:33:20.149Z,99.90
2018-07-30T04:35:48.567Z,99.90
2018-07-30T04:38:16.945Z,99.90
2018-07-30T04:40:45.216Z,99.90
2018-07-30T04:43:13.655Z,99.90
2018-07-30T04:45:43.614Z,99.90
2018-07-30T04:48:14.190Z,99.90
2018-07-30T04:50:43.260Z,99.90
2018-07-30T04:53:12.245Z,99.90
2018-07-30T04:55:41.290Z,99.90
2018-07-30T04:58:10.577Z,99.90
2018-07-30T05:00:38.854Z,99.90
2018-07-30T05:03:07.845Z,99.90
2018-07-30T05:05:37.909Z,99.90
2018-07-30T05:08:06.316Z,99.90
2018-07-30T05:10:34.773Z,99.90
2018-07-30T05:13:03.046Z,99.90
2018-07-30T05:15:31.317Z,99.90
2018-07-30T05:18:00.034Z,99.90
2018-07-30T05:20:28.408Z,99.90
2018-07-30T05:22:56.708Z,99.90
2018-07-30T05:25:25.910Z,99.90
2018-07-30T05:27:54.773Z,99.90
2018-07-30T05:30:23.441Z,99.90
2018-07-30T05:32:51.826Z,99.90
2018-07-30T05:35:20.101Z,99.90
2018-07-30T05:37:48.643Z,99.90
2018-07-30T05:40:16.957Z,99.90
2018-07-30T05:42:45.273Z,99.90
2018-07-30T05:47:43.070Z,99.90
2018-07-30T05:50:12.175Z,99.90
2018-07-30T05:52:41.293Z,99.90
2018-07-30T05:55:09.997Z,99.90
2018-07-30T05:57:38.251Z,99.90
2018-07-30T06:00:06.892Z,99.90
2018-07-30T06:02:35.197Z,99.90
2018-07-30T06:05:03.753Z,99.90
2018-07-30T06:07:32.011Z,99.90
2018-07-30T06:10:01.382Z,99.90
2018-07-30T06:12:29.657Z,99.90
2018-07-30T06:14:57.981Z,99.90
2018-07-30T06:17:26.322Z,99.90
2018-07-30T06:19:56.065Z,99.90
2018-07-30T06:25:14.999Z,99.90
2018-07-30T06:27:43.324Z,99.90
2018-07-30T06:30:13.070Z,99.90
2018-07-30T06:32:41.961Z,99.90
2018-07-30T06:35:10.929Z,99.90
2018-07-30T06:38:02.269Z,99.90
2018-07-30T06:40:31.091Z,99.90
2018-07-30T06:43:00.071Z,99.90
2018-07-30T06:47:57.178Z,99.90
2018-07-30T06:50:26.102Z,99.90
2018-07-30T06:52:55.315Z,99.90
2018-07-30T06:55:24.416Z,99.90
2018-07-30T06:57:52.685Z,99.90
2018-07-30T07:00:20.983Z,99.90
2018-07-30T07:02:49.832Z,99.90
2018-07-30T07:05:18.511Z,99.90
2018-07-30T07:07:47.208Z,99.90
2018-07-30T07:14:24.446Z,99.90
2018-07-30T07:16:54.455Z,99.40
2018-07-30T07:19:23.565Z,95.40
2018-07-30T07:21:52.443Z,93.60
2018-07-30T07:24:21.166Z,93.30
2018-07-30T07:26:50.046Z,90.30
2018-07-30T07:29:18.988Z,90.60
2018-07-30T07:31:47.872Z,90.90
2018-07-30T07:34:16.772Z,90.10
2018-07-30T07:36:45.915Z,87.70
2018-07-30T07:39:14.908Z,83.80
2018-07-30T07:41:43.537Z,76.50
2018-07-30T07:44:13.378Z,68.20
2018-07-30T07:46:42.329Z,58.90
2018-07-30T07:49:11.945Z,52.10
2018-07-30T07:51:40.642Z,46.60
2018-07-30T07:54:09.713Z,42.70
2018-07-30T07:56:38.487Z,41.80
2018-07-30T07:59:07.187Z,42.00
2018-07-30T08:01:35.982Z,39.40
2018-07-30T08:04:04.867Z,38.80
2018-07-30T08:06:33.646Z,39.80
2018-07-30T08:11:52.982Z,36.10
2018-07-30T08:14:21.766Z,39.50
2018-07-30T08:16:50.546Z,38.20
2018-07-30T08:19:19.365Z,38.60
2018-07-30T08:21:48.063Z,38.70
2018-07-30T08:24:16.804Z,35.70
2018-07-30T08:26:45.569Z,35.00
2018-07-30T08:32:05.326Z,33.30
2018-07-30T08:34:34.043Z,34.00
2018-07-30T08:37:02.894Z,31.80
2018-07-30T08:39:31.626Z,32.50
2018-07-30T08:42:00.655Z,33.30
2018-07-30T08:44:29.346Z,34.20
2018-07-30T08:46:58.162Z,31.90
2018-07-30T08:49:27.338Z,31.40
2018-07-30T08:51:57.219Z,32.30
2018-07-30T08:54:26.928Z,30.90
2018-07-30T08:56:57.402Z,30.00
2018-07-30T08:59:26.957Z,30.00
2018-07-30T09:01:57.887Z,28.70
2018-07-30T09:04:26.754Z,28.30
2018-07-30T09:06:56.480Z,27.80
2018-07-30T09:09:25.836Z,25.40
2018-07-30T09:11:55.375Z,26.60
2018-07-30T09:14:24.507Z,27.00
2018-07-30T09:16:54.157Z,28.00
2018-07-30T09:19:23.681Z,27.20
2018-07-30T09:21:52.619Z,27.50
2018-07-30T09:24:21.679Z,29.00
2018-07-30T09:29:19.179Z,24.20
2018-07-30T09:31:48.034Z,26.50
2018-07-30T09:34:16.776Z,26.00
2018-07-30T09:36:45.837Z,25.60
2018-07-30T09:39:14.549Z,26.70
2018-07-30T09:41:43.288Z,26.40
2018-07-30T09:44:12.285Z,25.90
2018-07-30T09:46:41.364Z,25.60
2018-07-30T09:49:11.064Z,27.00
2018-07-30T09:51:39.798Z,26.20
2018-07-30T09:54:08.820Z,24.60
2018-07-30T09:59:05.990Z,24.50
2018-07-30T10:01:34.992Z,24.40
2018-07-30T10:04:03.289Z,22.80
2018-07-30T10:06:31.567Z,23.00
2018-07-30T10:08:59.841Z,22.00
2018-07-30T10:11:28.213Z,23.30
2018-07-30T10:13:56.503Z,24.40
2018-07-30T10:19:15.916Z,23.80
2018-07-30T10:21:44.646Z,22.50
2018-07-30T10:24:13.490Z,23.00
2018-07-30T10:26:43.253Z,23.80
2018-07-30T10:29:12.762Z,23.70
2018-07-30T10:31:41.960Z,22.90
2018-07-30T10:34:10.917Z,23.70
2018-07-30T10:36:40.157Z,23.90
2018-07-30T10:39:09.344Z,22.50
2018-07-30T10:41:38.057Z,23.00
2018-07-30T10:44:06.803Z,23.30
2018-07-30T10:46:35.618Z,22.70
2018-07-30T10:49:04.531Z,23.30
2018-07-30T10:51:33.287Z,22.50
2018-07-30T10:54:02.078Z,22.90
2018-07-30T10:56:30.959Z,22.50
2018-07-30T10:58:59.650Z,21.90
2018-07-30T11:01:28.423Z,21.20
2018-07-30T11:03:56.716Z,21.80
2018-07-30T11:06:25.727Z,23.20
2018-07-30T11:08:53.989Z,24.70
2018-07-30T11:11:22.292Z,24.40
2018-07-30T11:16:41.596Z,24.50
2018-07-30T11:19:10.521Z,24.60
2018-07-30T11:21:39.304Z,24.40
2018-07-30T11:24:08.017Z,24.40
2018-07-30T11:29:05.116Z,24.40
2018-07-30T11:31:33.812Z,24.30
2018-07-30T11:34:02.611Z,25.80
2018-07-30T11:36:31.472Z,24.30
2018-07-30T11:39:00.125Z,23.60
2018-07-30T11:41:29.413Z,23.00
2018-07-30T11:43:58.078Z,23.50
2018-07-30T11:46:26.872Z,23.80
2018-07-30T11:48:56.504Z,24.00
2018-07-30T11:51:26.263Z,24.10
2018-07-30T11:53:55.955Z,24.70
2018-07-30T11:56:25.781Z,25.30
2018-07-30T11:58:54.829Z,26.90
2018-07-30T12:01:25.298Z,27.50
2018-07-30T12:03:53.944Z,28.10
2018-07-30T12:06:23.373Z,27.90
2018-07-30T12:08:52.177Z,28.20
2018-07-30T12:11:20.898Z,27.80
2018-07-30T12:13:52.096Z,26.60
2018-07-30T12:16:20.357Z,26.90
2018-07-30T12:18:48.709Z,24.80
2018-07-30T12:21:16.989Z,24.40
2018-07-30T12:23:45.678Z,24.80
2018-07-30T12:26:14.382Z,24.00
2018-07-30T12:28:43.059Z,24.10
2018-07-30T12:31:12.939Z,24.90
2018-07-30T12:33:43.022Z,25.20
2018-07-30T12:36:13.074Z,25.40
2018-07-30T12:38:42.462Z,25.30
2018-07-30T12:41:11.111Z,25.80
2018-07-30T12:43:39.362Z,26.40
2018-07-30T12:46:07.620Z,24.80
2018-07-30T12:48:35.890Z,25.30
2018-07-30T12:51:04.173Z,25.20
2018-07-30T12:53:32.459Z,24.80
2018-07-30T12:56:00.710Z,25.10
2018-07-30T12:58:28.986Z,24.40
2018-07-30T13:03:26.393Z,24.20
2018-07-30T13:05:55.801Z,25.30
2018-07-30T13:08:25.395Z,25.00
2018-07-30T13:11:12.181Z,24.80
2018-07-30T13:13:40.747Z,24.30
2018-07-30T13:16:09.030Z,24.90
2018-07-30T13:18:37.399Z,24.80
2018-07-30T13:21:05.884Z,24.60
2018-07-30T13:23:34.149Z,25.00
2018-07-30T13:26:02.845Z,25.00
2018-07-30T13:28:31.798Z,24.70
2018-07-30T13:31:00.843Z,24.20
2018-07-30T13:33:29.797Z,25.40
2018-07-30T13:35:59.640Z,24.80
2018-07-30T13:38:28.315Z,25.30
2018-07-30T13:40:57.824Z,26.10
2018-07-30T13:43:26.994Z,27.20
2018-07-30T13:48:26.618Z,27.80
2018-07-30T13:50:56.334Z,28.00
2018-07-30T13:53:25.858Z,28.50
2018-07-30T13:57:34.995Z,28.70
2018-07-30T14:00:03.877Z,28.10
2018-07-30T14:02:32.924Z,29.00
2018-07-30T14:05:01.376Z,28.70
2018-07-30T14:07:29.649Z,27.60
2018-07-30T14:09:58.374Z,27.60
2018-07-30T14:12:27.078Z,27.70
2018-07-30T14:14:56.573Z,27.70
2018-07-30T14:17:25.938Z,28.60
2018-07-30T14:19:54.966Z,27.20
2018-07-30T14:22:25.050Z,27.20
2018-07-30T14:24:54.159Z,27.50
2018-07-30T14:27:23.715Z,26.80
2018-07-30T14:29:52.637Z,26.40
2018-07-30T14:32:21.325Z,26.60
2018-07-30T14:34:50.305Z,26.20
2018-07-30T14:37:19.114Z,26.60
2018-07-30T14:39:47.462Z,26.40
2018-07-30T14:42:15.773Z,26.90
2018-07-30T14:44:44.569Z,27.90
2018-07-30T14:47:13.437Z,27.30
2018-07-30T14:49:43.017Z,27.40
2018-07-30T14:52:11.969Z,28.00
2018-07-30T14:57:10.387Z,28.00
2018-07-30T14:59:39.579Z,27.70
2018-07-30T15:02:09.411Z,27.70
2018-07-30T15:04:38.253Z,28.30
2018-07-30T15:07:07.127Z,27.80
2018-07-30T15:09:36.076Z,28.40
2018-07-30T15:12:05.143Z,28.00
2018-07-30T15:14:34.113Z,29.70
2018-07-30T15:17:03.161Z,29.80
2018-07-30T15:19:32.078Z,29.60
2018-07-30T15:22:01.275Z,30.00
2018-07-30T15:24:30.293Z,30.80
2018-07-30T15:29:49.550Z,33.00
2018-07-30T15:32:17.823Z,33.20
2018-07-30T15:34:46.079Z,33.10
2018-07-30T15:37:14.343Z,31.00
2018-07-30T15:39:42.772Z,30.60
2018-07-30T15:42:12.170Z,31.50
2018-07-30T15:44:41.375Z,30.80
2018-07-30T15:47:11.132Z,31.50
2018-07-30T15:49:39.429Z,31.60
2018-07-30T15:52:07.734Z,35.70
2018-07-30T15:54:36.000Z,34.50
2018-07-30T15:57:04.279Z,33.30
2018-07-30T15:59:32.681Z,32.80
2018-07-30T16:02:01.142Z,32.50
2018-07-30T16:04:29.997Z,36.60
2018-07-30T16:06:58.834Z,35.10
2018-07-30T16:09:27.114Z,38.60
2018-07-30T16:11:56.492Z,39.20
2018-07-30T16:14:26.286Z,37.90
2018-07-30T16:16:55.686Z,37.40
2018-07-30T16:19:25.604Z,38.10
2018-07-30T16:21:55.196Z,38.60
2018-07-30T16:24:25.652Z,37.00
2018-07-30T16:26:55.986Z,37.30
2018-07-30T16:29:26.266Z,36.00
2018-07-30T16:31:55.627Z,34.80
2018-07-30T16:34:24.961Z,34.20
2018-07-30T16:36:54.202Z,33.00
2018-07-30T16:39:24.558Z,32.90
2018-07-30T16:41:54.500Z,33.80
2018-07-30T16:44:24.436Z,37.70
2018-07-30T16:46:54.388Z,35.10
2018-07-30T16:49:23.843Z,35.00
2018-07-30T16:51:54.311Z,34.10
2018-07-30T16:54:24.587Z,34.40
2018-07-30T16:56:55.151Z,33.30
2018-07-30T16:59:24.030Z,33.70
2018-07-30T17:01:54.480Z,35.40
2018-07-30T17:04:24.159Z,36.00
2018-07-30T17:06:54.231Z,36.00
2018-07-30T17:09:23.042Z,41.00
2018-07-30T17:11:51.369Z,40.90
2018-07-30T17:14:21.549Z,39.00
2018-07-30T17:16:49.984Z,37.50
2018-07-30T17:19:18.417Z,38.90
2018-07-30T17:21:46.889Z,40.30
2018-07-30T17:24:16.033Z,36.60
2018-07-30T17:26:44.910Z,39.80
2018-07-30T17:29:14.097Z,41.10
2018-07-30T17:31:42.932Z,39.80
2018-07-30T17:34:12.118Z,39.70
2018-07-30T17:36:41.270Z,39.90
2018-07-30T17:39:22.055Z,40.50
2018-07-30T17:41:52.291Z,41.40
2018-07-30T17:44:21.469Z,41.50
2018-07-30T17:46:50.561Z,41.90
2018-07-30T17:49:19.224Z,43.00
2018-07-30T17:51:48.324Z,44.20
2018-07-30T17:54:17.292Z,46.30
2018-07-30T17:56:45.614Z,47.80
2018-07-30T17:59:14.471Z,49.50
2018-07-30T18:01:43.966Z,50.90
2018-07-30T18:04:12.613Z,52.30
2018-07-30T18:06:42.355Z,53.70
2018-07-30T18:09:11.385Z,53.80
2018-07-30T18:11:40.458Z,53.80
2018-07-30T18:14:09.299Z,54.30
2018-07-30T18:16:37.979Z,54.50
2018-07-30T18:19:06.886Z,54.90
2018-07-30T18:21:35.579Z,55.70
2018-07-30T18:24:05.444Z,55.00
2018-07-30T18:26:33.879Z,55.40
2018-07-30T18:29:02.497Z,56.10
2018-07-30T18:31:31.219Z,56.40
2018-07-30T18:34:00.130Z,56.70
2018-07-30T18:36:28.880Z,58.00
2018-07-30T18:38:57.636Z,58.40
2018-07-30T18:44:19.988Z,59.10
2018-07-30T18:46:48.301Z,59.00
2018-07-30T18:49:17.193Z,60.50
2018-07-30T18:51:46.036Z,60.90
2018-07-30T18:56:43.513Z,62.90
2018-07-30T18:59:12.265Z,63.20
2018-07-30T19:01:41.157Z,64.80
2018-07-30T19:04:10.117Z,66.00
2018-07-30T19:06:39.443Z,66.80
2018-07-30T19:09:09.278Z,69.00
2018-07-30T19:11:38.735Z,70.60
2018-07-30T19:16:58.427Z,74.90
2018-07-30T19:19:27.456Z,78.20
2018-07-30T19:24:24.853Z,81.90
2018-07-30T19:26:53.559Z,84.30
2018-07-30T19:29:22.338Z,87.10
2018-07-30T19:31:51.139Z,90.40
2018-07-30T19:34:19.902Z,91.60
2018-07-30T19:36:48.858Z,91.40
2018-07-30T19:39:17.890Z,91.60
2018-07-30T19:41:46.759Z,90.00
2018-07-30T19:44:15.739Z,90.70
2018-07-30T19:46:44.482Z,91.10
2018-07-30T19:51:41.970Z,92.40
2018-07-30T19:54:11.008Z,93.30
2018-07-30T19:56:39.999Z,94.30
2018-07-30T19:59:09.990Z,96.30
2018-07-30T20:01:39.193Z,97.30
2018-07-30T20:04:08.278Z,97.10
2018-07-30T20:06:37.155Z,97.90
2018-07-30T20:09:08.127Z,97.80
2018-07-30T20:11:36.463Z,97.60
2018-07-30T20:14:04.766Z,97.00
2018-07-30T20:18:31.793Z,97.80
2018-07-30T20:21:00.690Z,97.60
2018-07-30T20:23:29.916Z,97.50
2018-07-30T20:25:58.948Z,98.10
2018-07-30T20:28:28.735Z,98.90
2018-07-30T20:30:57.586Z,99.90
2018-07-30T20:33:27.279Z,99.90
2018-07-30T20:35:56.624Z,99.90
2018-07-30T20:38:25.628Z,99.90
2018-07-30T20:40:54.648Z,99.90
2018-07-30T20:43:23.569Z,99.90
2018-07-30T20:48:42.619Z,99.90
2018-07-30T20:51:11.231Z,99.90
2018-07-30T20:53:39.931Z,99.90
2018-07-30T20:56:09.169Z,99.90
2018-07-30T20:58:38.529Z,99.90
2018-07-30T21:01:07.392Z,99.90
2018-07-30T21:03:36.945Z,99.90
2018-07-30T21:06:05.934Z,99.90
2018-07-30T21:08:34.789Z,99.90
2018-07-30T21:11:03.615Z,99.90
2018-07-30T21:13:32.549Z,99.90
2018-07-30T21:16:02.103Z,99.90
2018-07-30T21:20:58.644Z,99.90
2018-07-30T21:23:26.916Z,99.90
2018-07-30T21:25:55.194Z,99.90
2018-07-30T21:28:23.742Z,99.90
2018-07-30T21:30:52.007Z,99.90
2018-07-30T21:33:20.480Z,99.90
2018-07-30T21:35:48.747Z,99.90
2018-07-30T21:38:17.021Z,99.90
2018-07-30T21:40:45.290Z,99.90
2018-07-30T21:43:13.554Z,99.90
2018-07-30T21:45:41.822Z,99.90
2018-07-30T21:48:10.106Z,99.90
2018-07-30T21:50:38.726Z,99.90
2018-07-30T21:53:08.638Z,99.90
2018-07-30T21:58:04.896Z,99.90
2018-07-30T22:00:33.290Z,99.90
2018-07-30T22:03:01.574Z,99.90
2018-07-30T22:05:29.895Z,99.90
2018-07-30T22:07:58.187Z,99.90
2018-07-30T22:10:26.472Z,99.90
2018-07-30T22:12:55.470Z,99.90
2018-07-30T22:15:24.316Z,99.90
2018-07-30T22:17:52.920Z,99.90
2018-07-30T22:20:21.216Z,99.90
2018-07-30T22:22:50.643Z,99.90
2018-07-30T22:25:18.931Z,99.90
2018-07-30T22:30:15.206Z,99.90
2018-07-30T22:32:43.539Z,99.90
2018-07-30T22:37:39.846Z,99.90
2018-07-30T22:40:08.761Z,99.90
2018-07-30T22:42:37.166Z,99.90
2018-07-30T22:45:05.483Z,99.90
2018-07-30T22:47:33.762Z,99.90
2018-07-30T22:50:02.042Z,99.90
2018-07-30T22:52:30.318Z,99.90
2018-07-30T22:54:58.621Z,99.90
2018-07-30T22:57:26.993Z,99.90
2018-07-30T22:59:55.307Z,99.90
2018-07-30T23:02:23.578Z,99.90
2018-07-30T23:04:51.846Z,99.90
2018-07-30T23:07:20.121Z,99.90
2018-07-30T23:09:48.553Z,99.90
2018-07-30T23:12:16.999Z,99.90
2018-07-30T23:14:45.397Z,99.90
2018-07-30T23:20:04.828Z,99.90
2018-07-30T23:22:33.099Z,99.90
2018-07-30T23:25:01.379Z,99.90
2018-07-30T23:27:29.657Z,99.90
2018-07-30T23:29:58.092Z,99.90
2018-07-30T23:32:26.625Z,99.90
2018-07-30T23:34:54.894Z,99.90
2018-07-30T23:37:23.398Z,99.90
2018-07-30T23:39:51.632Z,99.90
2018-07-30T23:42:19.902Z,99.90
2018-07-30T23:44:48.288Z,99.90
2018-07-30T23:47:16.555Z,99.90
2018-07-30T23:49:44.818Z,99.90
2018-07-30T23:52:13.090Z,99.90
2018-07-30T23:54:41.398Z,99.90
2018-07-30T23:57:09.704Z,99.90
2018-07-30T23:59:37.983Z,99.90
